Airport Name : Arad

Other Name : Arad

ICAO : LRAR

IATA : ARW

FAA :

Latitude : 46.17655

Longitude : 21.262022

Country : Romania

Local Date and Time : 07 Dec 2022 21:32

 

TAF (Terminal Aerodrome Forecast)

TAF LRAR 071700Z 0718/0803 VRB04KT 3000 BR NSC BECMG 0721/0723 0800 FZFG VV002 PROB30 TEMPO 0723/0803 0350 FZFG VV001

 

METAR (METeorological Aerodrome Report)

LRAR 071900Z 31002KT 4500 BR NSC 00/M00 Q1016

LRAR 071830Z 29002KT 3000 BR NSC 01/00 Q1016

LRAR 071800Z 29001KT 5000 BR NSC 01/00 Q1015

LRAR 071730Z 28003KT 6000 NSC 01/01 Q1015

LRAR 071700Z 00000KT 7000 NSC 02/01 Q1015

LRAR 071630Z 00000KT 7000 NSC 03/02 Q1015

LRAR 071600Z 33002KT 5000 BR NSC 02/02 Q1015

To Charter a Jet Click here.